sensor_id;sensor_type;location;lat;lon;timestamp;pressure;altitude;pressure_sealevel;temperature;humidity
32735;BME280;19112;51.076;3.706;2023-05-23T00:00:57;101817.56;;;15.94;74.45
32735;BME280;19112;51.076;3.706;2023-05-23T00:03:24;101670.09;;;14.93;74.63
32735;BME280;19112;51.076;3.706;2023-05-23T00:05:50;101772.91;;;15.75;74.02
32735;BME280;19112;51.076;3.706;2023-05-23T00:08:16;101826.44;;;15.96;74.28
32735;BME280;19112;51.076;3.706;2023-05-23T00:10:43;101841.84;;;16.11;74.19
32735;BME280;19112;51.076;3.706;2023-05-23T00:13:10;101780.25;;;15.85;73.85
32735;BME280;19112;51.076;3.706;2023-05-23T00:15:41;102036.41;;;17.15;73.96
32735;BME280;19112;51.076;3.706;2023-05-23T00:18:08;101619.72;;;14.89;73.68
32735;BME280;19112;51.076;3.706;2023-05-23T00:20:37;101479.47;;;13.91;73.35
32735;BME280;19112;51.076;3.706;2023-05-23T00:23:10;101423.38;;;13.98;73.16
32735;BME280;19112;51.076;3.706;2023-05-23T00:25:38;102019.06;;;17.29;73.43
32735;BME280;19112;51.076;3.706;2023-05-23T00:28:05;101745.44;;;15.71;73.25
32735;BME280;19112;51.076;3.706;2023-05-23T00:30:32;101633.69;;;15.16;73.24
32735;BME280;19112;51.076;3.706;2023-05-23T00:32:59;101983.06;;;17.05;73.22
32735;BME280;19112;51.076;3.706;2023-05-23T00:35:25;102022.47;;;17.24;73.82
32735;BME280;19112;51.076;3.706;2023-05-23T00:37:52;102002.19;;;16.60;75.58
32735;BME280;19112;51.076;3.706;2023-05-23T00:40:18;102039.91;;;16.80;75.87
32735;BME280;19112;51.076;3.706;2023-05-23T00:42:44;101995.47;;;16.71;75.52
32735;BME280;19112;51.076;3.706;2023-05-23T00:45:11;102027.78;;;16.89;75.84
32735;BME280;19112;51.076;3.706;2023-05-23T00:47:41;101743.28;;;15.25;76.21
32735;BME280;19112;51.076;3.706;2023-05-23T00:50:13;101942.81;;;16.20;76.94
32735;BME280;19112;51.076;3.706;2023-05-23T00:52:41;102020.31;;;16.74;76.67
32735;BME280;19112;51.076;3.706;2023-05-23T00:55:09;101790.63;;;15.15;77.07
32735;BME280;19112;51.076;3.706;2023-05-23T00:57:36;101812.06;;;15.25;77.66
32735;BME280;19112;51.076;3.706;2023-05-23T01:00:12;102014.28;;;16.18;78.24
32735;BME280;19112;51.076;3.706;2023-05-23T01:02:44;101736.75;;;14.83;77.79
32735;BME280;19112;51.076;3.706;2023-05-23T01:05:14;102029.94;;;16.71;77.50
32735;BME280;19112;51.076;3.706;2023-05-23T01:07:45;102038.59;;;16.65;77.42
32735;BME280;19112;51.076;3.706;2023-05-23T01:10:20;102027.44;;;16.77;77.14
32735;BME280;19112;51.076;3.706;2023-05-23T01:18:33;102028.31;;;16.76;76.44
32735;BME280;19112;51.076;3.706;2023-05-23T01:21:22;101671.22;;;14.72;76.73
32735;BME280;19112;51.076;3.706;2023-05-23T01:27:02;102030.47;;;16.91;76.22
32735;BME280;19112;51.076;3.706;2023-05-23T01:29:37;101887.41;;;15.97;76.30
32735;BME280;19112;51.076;3.706;2023-05-23T01:32:08;101906.19;;;16.05;76.13
32735;BME280;19112;51.076;3.706;2023-05-23T01:34:36;101830.91;;;15.35;76.20
32735;BME280;19112;51.076;3.706;2023-05-23T01:37:10;101951.72;;;16.23;76.18
32735;BME280;19112;51.076;3.706;2023-05-23T01:39:37;101894.16;;;15.86;76.21
32735;BME280;19112;51.076;3.706;2023-05-23T01:42:03;102051.66;;;16.58;76.30
32735;BME280;19112;51.076;3.706;2023-05-23T01:44:31;102045.25;;;16.51;76.88
32735;BME280;19112;51.076;3.706;2023-05-23T01:46:57;101829.13;;;15.36;76.03
32735;BME280;19112;51.076;3.706;2023-05-23T01:49:24;101743.09;;;14.88;75.51
32735;BME280;19112;51.076;3.706;2023-05-23T01:51:50;102050.03;;;16.63;75.28
32735;BME280;19112;51.076;3.706;2023-05-23T01:54:17;102073.00;;;16.62;74.73
32735;BME280;19112;51.076;3.706;2023-05-23T01:56:44;102041.53;;;16.44;75.48
32735;BME280;19112;51.076;3.706;2023-05-23T01:59:10;101659.91;;;14.47;75.02
32735;BME280;19112;51.076;3.706;2023-05-23T02:01:37;101896.75;;;15.85;74.92
32735;BME280;19112;51.076;3.706;2023-05-23T02:04:03;102036.69;;;16.61;75.03
32735;BME280;19112;51.076;3.706;2023-05-23T02:06:29;102058.91;;;16.65;74.85
32735;BME280;19112;51.076;3.706;2023-05-23T02:08:56;102042.00;;;16.61;75.16
32735;BME280;19112;51.076;3.706;2023-05-23T02:11:22;101371.03;;;12.69;74.99
32735;BME280;19112;51.076;3.706;2023-05-23T02:13:48;102012.03;;;16.32;75.20
32735;BME280;19112;51.076;3.706;2023-05-23T02:16:14;101764.81;;;14.78;75.20
32735;BME280;19112;51.076;3.706;2023-05-23T02:18:40;102010.25;;;16.31;75.19
32735;BME280;19112;51.076;3.706;2023-05-23T02:21:06;101885.34;;;15.57;75.22
32735;BME280;19112;51.076;3.706;2023-05-23T02:23:31;101937.53;;;15.90;75.15
32735;BME280;19112;51.076;3.706;2023-05-23T02:25:57;102064.22;;;16.65;75.06
32735;BME280;19112;51.076;3.706;2023-05-23T02:28:23;101770.84;;;14.74;75.21
32735;BME280;19112;51.076;3.706;2023-05-23T02:30:49;102015.25;;;15.92;76.41
32735;BME280;19112;51.076;3.706;2023-05-23T02:33:15;102037.63;;;16.02;76.73
32735;BME280;19112;51.076;3.706;2023-05-23T02:35:41;101966.47;;;15.28;77.76
32735;BME280;19112;51.076;3.706;2023-05-23T02:38:07;102008.00;;;15.58;77.81
32735;BME280;19112;51.076;3.706;2023-05-23T02:40:33;102069.97;;;15.90;78.12
32735;BME280;19112;51.076;3.706;2023-05-23T02:42:58;101738.81;;;14.11;77.82
32735;BME280;19112;51.076;3.706;2023-05-23T02:45:24;101883.78;;;15.07;77.50
32735;BME280;19112;51.076;3.706;2023-05-23T02:47:50;101569.97;;;13.07;77.61
32735;BME280;19112;51.076;3.706;2023-05-23T02:50:16;101984.06;;;15.82;77.15
32735;BME280;19112;51.076;3.706;2023-05-23T02:52:42;101711.25;;;14.28;76.53
32735;BME280;19112;51.076;3.706;2023-05-23T02:55:08;101922.09;;;15.46;76.66
32735;BME280;19112;51.076;3.706;2023-05-23T02:57:34;101950.63;;;15.57;76.52
32735;BME280;19112;51.076;3.706;2023-05-23T03:00:01;102083.56;;;16.31;76.80
32735;BME280;19112;51.076;3.706;2023-05-23T03:02:27;101709.34;;;14.24;76.43
32735;BME280;19112;51.076;3.706;2023-05-23T03:04:52;101724.97;;;14.45;76.18
32735;BME280;19112;51.076;3.706;2023-05-23T03:07:20;101774.13;;;14.65;75.83
32735;BME280;19112;51.076;3.706;2023-05-23T03:09:46;101996.41;;;15.81;76.24
32735;BME280;19112;51.076;3.706;2023-05-23T03:12:12;101902.38;;;15.37;76.08
32735;BME280;19112;51.076;3.706;2023-05-23T03:14:38;102061.38;;;16.27;76.25
32735;BME280;19112;51.076;3.706;2023-05-23T03:17:03;101845.72;;;15.02;75.90
32735;BME280;19112;51.076;3.706;2023-05-23T03:19:29;101438.34;;;12.36;76.46
32735;BME280;19112;51.076;3.706;2023-05-23T03:21:55;101577.81;;;13.31;76.40
32735;BME280;19112;51.076;3.706;2023-05-23T03:24:21;102051.31;;;15.87;76.63
32735;BME280;19112;51.076;3.706;2023-05-23T03:26:47;101402.31;;;12.09;76.43
32735;BME280;19112;51.076;3.706;2023-05-23T03:29:13;101805.50;;;14.55;76.47
32735;BME280;19112;51.076;3.706;2023-05-23T03:31:39;101268.09;;;11.36;76.43
32735;BME280;19112;51.076;3.706;2023-05-23T03:34:04;101498.16;;;12.64;76.50
32735;BME280;19112;51.076;3.706;2023-05-23T03:36:31;102124.84;;;15.94;76.89
32735;BME280;19112;51.076;3.706;2023-05-23T03:39:00;101838.94;;;14.03;76.72
32735;BME280;19112;51.076;3.706;2023-05-23T03:41:26;101808.47;;;14.13;77.49
32735;BME280;19112;51.076;3.706;2023-05-23T03:43:52;102047.72;;;15.58;77.45
32735;BME280;19112;51.076;3.706;2023-05-23T03:46:18;101849.91;;;14.41;77.43
32735;BME280;19112;51.076;3.706;2023-05-23T03:48:43;101519.59;;;12.49;76.80
32735;BME280;19112;51.076;3.706;2023-05-23T03:51:09;102104.28;;;15.87;77.04
32735;BME280;19112;51.076;3.706;2023-05-23T03:53:38;102045.94;;;15.57;77.32
32735;BME280;19112;51.076;3.706;2023-05-23T03:56:04;101967.97;;;15.18;76.75
32735;BME280;19112;51.076;3.706;2023-05-23T03:58:30;101805.84;;;14.40;75.71
32735;BME280;19112;51.076;3.706;2023-05-23T04:00:56;102011.59;;;15.60;75.44
32735;BME280;19112;51.076;3.706;2023-05-23T04:03:22;101782.06;;;14.40;74.41
32735;BME280;19112;51.076;3.706;2023-05-23T04:05:48;101396.63;;;11.98;74.12
32735;BME280;19112;51.076;3.706;2023-05-23T04:08:14;102032.25;;;15.70;73.98
32735;BME280;19112;51.076;3.706;2023-05-23T04:10:40;101731.03;;;13.88;73.47
32735;BME280;19112;51.076;3.706;2023-05-23T04:13:06;102106.66;;;16.06;73.64
32735;BME280;19112;51.076;3.706;2023-05-23T04:15:32;102087.34;;;15.82;73.82
32735;BME280;19112;51.076;3.706;2023-05-23T04:17:59;101885.00;;;14.62;73.74
32735;BME280;19112;51.076;3.706;2023-05-23T04:20:25;101955.34;;;14.84;74.52
32735;BME280;19112;51.076;3.706;2023-05-23T04:22:51;101902.72;;;14.65;74.24
32735;BME280;19112;51.076;3.706;2023-05-23T04:25:16;101942.69;;;15.01;73.86
32735;BME280;19112;51.076;3.706;2023-05-23T04:27:46;101530.88;;;12.70;73.27
32735;BME280;19112;51.076;3.706;2023-05-23T04:30:13;102079.97;;;15.71;73.94
32735;BME280;19112;51.076;3.706;2023-05-23T04:32:39;101857.50;;;14.32;74.18
32735;BME280;19112;51.076;3.706;2023-05-23T04:35:06;101845.47;;;14.40;73.76
32735;BME280;19112;51.076;3.706;2023-05-23T04:37:31;101591.56;;;12.97;73.23
32735;BME280;19112;51.076;3.706;2023-05-23T04:39:58;102007.72;;;15.49;73.18
32735;BME280;19112;51.076;3.706;2023-05-23T04:42:26;102128.16;;;16.15;73.01
32735;BME280;19112;51.076;3.706;2023-05-23T04:44:54;102034.81;;;15.67;72.14
32735;BME280;19112;51.076;3.706;2023-05-23T04:47:22;101980.28;;;15.18;72.71
32735;BME280;19112;51.076;3.706;2023-05-23T04:49:49;101898.69;;;14.49;72.71
32735;BME280;19112;51.076;3.706;2023-05-23T04:52:18;102092.72;;;15.58;73.17
32735;BME280;19112;51.076;3.706;2023-05-23T04:54:45;101948.72;;;14.70;72.89
32735;BME280;19112;51.076;3.706;2023-05-23T04:57:13;102100.34;;;15.49;73.42
32735;BME280;19112;51.076;3.706;2023-05-23T04:59:40;102052.75;;;15.23;73.22
32735;BME280;19112;51.076;3.706;2023-05-23T05:02:07;102146.25;;;15.75;73.25
32735;BME280;19112;51.076;3.706;2023-05-23T05:04:34;101993.94;;;14.54;73.25
32735;BME280;19112;51.076;3.706;2023-05-23T05:06:59;101972.88;;;14.55;73.58
32735;BME280;19112;51.076;3.706;2023-05-23T05:09:28;102077.25;;;15.17;73.29
32735;BME280;19112;51.076;3.706;2023-05-23T05:11:54;102169.78;;;15.65;72.80
32735;BME280;19112;51.076;3.706;2023-05-23T05:14:20;101938.63;;;14.34;72.12
32735;BME280;19112;51.076;3.706;2023-05-23T05:16:46;102171.47;;;15.63;71.44
32735;BME280;19112;51.076;3.706;2023-05-23T05:19:13;102015.09;;;14.54;72.11
32735;BME280;19112;51.076;3.706;2023-05-23T05:21:39;102039.94;;;14.35;71.75
32735;BME280;19112;51.076;3.706;2023-05-23T05:24:05;101930.06;;;13.92;72.36
32735;BME280;19112;51.076;3.706;2023-05-23T05:26:34;102000.81;;;14.25;72.01
32735;BME280;19112;51.076;3.706;2023-05-23T05:29:01;102189.94;;;15.36;71.27
32735;BME280;19112;51.076;3.706;2023-05-23T05:31:27;101714.63;;;12.52;70.14
32735;BME280;19112;51.076;3.706;2023-05-23T05:33:54;102157.75;;;15.24;70.26
32735;BME280;19112;51.076;3.706;2023-05-23T05:36:20;102009.19;;;14.61;69.35
32735;BME280;19112;51.076;3.706;2023-05-23T05:38:46;102027.63;;;14.85;68.55
32735;BME280;19112;51.076;3.706;2023-05-23T05:41:12;101866.56;;;13.89;68.72
32735;BME280;19112;51.076;3.706;2023-05-23T05:43:38;102071.91;;;14.90;68.88
32735;BME280;19112;51.076;3.706;2023-05-23T05:46:04;101658.28;;;12.48;68.55
32735;BME280;19112;51.076;3.706;2023-05-23T05:48:30;102064.44;;;14.79;67.60
32735;BME280;19112;51.076;3.706;2023-05-23T05:50:56;102173.00;;;15.31;68.00
32735;BME280;19112;51.076;3.706;2023-05-23T05:53:25;101987.41;;;14.20;66.72
32735;BME280;19112;51.076;3.706;2023-05-23T05:55:53;102215.06;;;15.49;67.64
32735;BME280;19112;51.076;3.706;2023-05-23T05:58:19;102129.00;;;15.09;67.64
32735;BME280;19112;51.076;3.706;2023-05-23T06:00:47;101901.78;;;13.89;67.37
32735;BME280;19112;51.076;3.706;2023-05-23T06:03:13;102163.94;;;15.25;66.19
32735;BME280;19112;51.076;3.706;2023-05-23T06:05:40;102053.47;;;14.92;66.10
32735;BME280;19112;51.076;3.706;2023-05-23T06:08:06;101719.56;;;12.89;65.60
32735;BME280;19112;51.076;3.706;2023-05-23T06:10:33;102074.47;;;14.87;65.53
32735;BME280;19112;51.076;3.706;2023-05-23T06:12:59;101923.03;;;13.93;65.17
32735;BME280;19112;51.076;3.706;2023-05-23T06:15:25;102243.00;;;15.65;65.28
32735;BME280;19112;51.076;3.706;2023-05-23T06:17:51;102250.28;;;15.23;65.29
32735;BME280;19112;51.076;3.706;2023-05-23T06:20:17;101973.56;;;14.02;65.66
32735;BME280;19112;51.076;3.706;2023-05-23T06:22:43;102217.00;;;15.53;65.53
32735;BME280;19112;51.076;3.706;2023-05-23T06:25:09;102142.19;;;15.08;65.17
32735;BME280;19112;51.076;3.706;2023-05-23T06:27:35;101887.81;;;13.68;64.62
32735;BME280;19112;51.076;3.706;2023-05-23T06:30:06;102084.94;;;14.60;64.34
32735;BME280;19112;51.076;3.706;2023-05-23T06:32:32;101980.44;;;13.98;64.51
32735;BME280;19112;51.076;3.706;2023-05-23T06:34:58;102073.53;;;14.61;64.29
32735;BME280;19112;51.076;3.706;2023-05-23T06:37:24;102159.22;;;15.16;64.14
32735;BME280;19112;51.076;3.706;2023-05-23T06:39:50;101950.47;;;14.22;63.99
32735;BME280;19112;51.076;3.706;2023-05-23T06:42:16;102162.38;;;15.30;63.09
32735;BME280;19112;51.076;3.706;2023-05-23T06:44:42;102161.09;;;15.18;63.02
32735;BME280;19112;51.076;3.706;2023-05-23T06:47:07;101778.66;;;12.96;63.05
32735;BME280;19112;51.076;3.706;2023-05-23T06:49:33;101993.28;;;13.89;63.01
32735;BME280;19112;51.076;3.706;2023-05-23T06:51:59;102172.97;;;15.06;63.49
32735;BME280;19112;51.076;3.706;2023-05-23T06:54:25;102290.44;;;15.59;62.83
32735;BME280;19112;51.076;3.706;2023-05-23T06:56:51;101950.56;;;13.75;63.94
32735;BME280;19112;51.076;3.706;2023-05-23T06:59:18;102213.97;;;15.42;63.73
32735;BME280;19112;51.076;3.706;2023-05-23T07:01:44;102176.66;;;15.35;63.46
32735;BME280;19112;51.076;3.706;2023-05-23T07:04:10;102270.69;;;15.98;63.01
32735;BME280;19112;51.076;3.706;2023-05-23T07:06:36;102019.69;;;14.35;63.05
32735;BME280;19112;51.076;3.706;2023-05-23T07:09:04;101691.59;;;12.70;63.13
32735;BME280;19112;51.076;3.706;2023-05-23T07:11:30;102102.44;;;14.81;63.17
32735;BME280;19112;51.076;3.706;2023-05-23T07:13:56;102040.44;;;14.25;64.03
32735;BME280;19112;51.076;3.706;2023-05-23T07:16:22;102288.41;;;15.76;64.17
32735;BME280;19112;51.076;3.706;2023-05-23T07:18:47;102109.56;;;14.59;64.25
32735;BME280;19112;51.076;3.706;2023-05-23T07:21:13;102199.03;;;15.19;64.92
32735;BME280;19112;51.076;3.706;2023-05-23T07:23:40;102215.47;;;15.10;65.10
32735;BME280;19112;51.076;3.706;2023-05-23T07:26:05;102212.00;;;15.37;64.98
32735;BME280;19112;51.076;3.706;2023-05-23T07:28:34;102005.41;;;14.06;64.90
32735;BME280;19112;51.076;3.706;2023-05-23T07:31:00;102230.41;;;15.34;65.09
32735;BME280;19112;51.076;3.706;2023-05-23T07:33:26;101923.94;;;13.69;65.01
32735;BME280;19112;51.076;3.706;2023-05-23T07:35:52;101506.69;;;11.20;65.38
32735;BME280;19112;51.076;3.706;2023-05-23T07:38:18;101980.63;;;14.03;65.52
32735;BME280;19112;51.076;3.706;2023-05-23T07:40:44;101946.53;;;13.85;65.68
32735;BME280;19112;51.076;3.706;2023-05-23T07:43:10;101968.81;;;13.93;65.95
32735;BME280;19112;51.076;3.706;2023-05-23T07:45:35;102184.06;;;15.19;66.24
32735;BME280;19112;51.076;3.706;2023-05-23T07:48:01;102014.16;;;14.52;65.78
32735;BME280;19112;51.076;3.706;2023-05-23T07:50:27;101672.88;;;12.63;65.16
32735;BME280;19112;51.076;3.706;2023-05-23T07:52:53;101647.63;;;12.23;65.71
32735;BME280;19112;51.076;3.706;2023-05-23T07:55:19;102199.13;;;15.22;66.33
32735;BME280;19112;51.076;3.706;2023-05-23T07:57:45;102296.44;;;15.77;66.74
32735;BME280;19112;51.076;3.706;2023-05-23T08:00:12;101652.69;;;12.18;66.99
32735;BME280;19112;51.076;3.706;2023-05-23T08:02:39;101958.91;;;13.87;67.15
32735;BME280;19112;51.076;3.706;2023-05-23T08:05:05;101990.16;;;13.99;67.54
32735;BME280;19112;51.076;3.706;2023-05-23T08:07:33;102161.44;;;15.04;67.58
32735;BME280;19112;51.076;3.706;2023-05-23T08:09:59;102281.53;;;15.81;67.21
32735;BME280;19112;51.076;3.706;2023-05-23T08:12:24;102162.13;;;14.98;67.19
32735;BME280;19112;51.076;3.706;2023-05-23T08:14:50;102301.69;;;15.53;67.93
32735;BME280;19112;51.076;3.706;2023-05-23T08:17:16;102024.91;;;14.10;67.93
32735;BME280;19112;51.076;3.706;2023-05-23T08:19:42;102062.63;;;14.30;68.03
32735;BME280;19112;51.076;3.706;2023-05-23T08:22:08;102297.03;;;15.46;67.60
32735;BME280;19112;51.076;3.706;2023-05-23T08:24:34;102285.06;;;15.81;67.50
32735;BME280;19112;51.076;3.706;2023-05-23T08:27:00;102136.94;;;15.09;66.92
32735;BME280;19112;51.076;3.706;2023-05-23T08:29:26;102137.13;;;15.39;66.30
32735;BME280;19112;51.076;3.706;2023-05-23T08:31:52;102177.81;;;16.22;65.29
32735;BME280;19112;51.076;3.706;2023-05-23T08:34:18;101984.94;;;15.54;63.61
32735;BME280;19112;51.076;3.706;2023-05-23T08:36:44;102132.41;;;16.40;62.61
32735;BME280;19112;51.076;3.706;2023-05-23T08:39:10;102076.16;;;15.90;62.51
32735;BME280;19112;51.076;3.706;2023-05-23T08:41:36;102144.94;;;15.87;61.82
32735;BME280;19112;51.076;3.706;2023-05-23T08:44:02;102300.38;;;16.96;62.22
32735;BME280;19112;51.076;3.706;2023-05-23T08:46:28;102165.88;;;16.35;60.80
32735;BME280;19112;51.076;3.706;2023-05-23T08:48:55;101813.78;;;14.40;60.58
32735;BME280;19112;51.076;3.706;2023-05-23T08:51:26;102307.91;;;17.11;59.45
32735;BME280;19112;51.076;3.706;2023-05-23T08:53:53;102316.09;;;17.20;59.52
32735;BME280;19112;51.076;3.706;2023-05-23T08:56:22;101971.50;;;15.48;59.60
32735;BME280;19112;51.076;3.706;2023-05-23T08:58:49;102139.47;;;16.68;58.11
32735;BME280;19112;51.076;3.706;2023-05-23T09:01:18;102165.53;;;16.53;58.46
32735;BME280;19112;51.076;3.706;2023-05-23T09:03:45;102139.38;;;16.35;58.26
32735;BME280;19112;51.076;3.706;2023-05-23T09:06:12;101690.72;;;13.93;57.19
32735;BME280;19112;51.076;3.706;2023-05-23T09:08:39;102225.53;;;17.08;56.55
32735;BME280;19112;51.076;3.706;2023-05-23T09:11:05;102148.63;;;16.78;56.20
32735;BME280;19112;51.076;3.706;2023-05-23T09:13:32;102301.31;;;17.59;56.45
32735;BME280;19112;51.076;3.706;2023-05-23T09:18:42;102130.09;;;16.51;55.11
32735;BME280;19112;51.076;3.706;2023-05-23T09:21:10;102019.13;;;16.33;55.35
32735;BME280;19112;51.076;3.706;2023-05-23T09:23:38;102308.81;;;18.06;55.01
32735;BME280;19112;51.076;3.706;2023-05-23T09:26:09;102209.69;;;17.11;55.10
32735;BME280;19112;51.076;3.706;2023-05-23T09:28:37;102030.00;;;16.12;55.96
32735;BME280;19112;51.076;3.706;2023-05-23T09:31:08;101996.88;;;16.27;55.38
32735;BME280;19112;51.076;3.706;2023-05-23T09:33:49;102318.84;;;18.17;54.83
32735;BME280;19112;51.076;3.706;2023-05-23T09:36:18;101993.09;;;15.88;55.10
32735;BME280;19112;51.076;3.706;2023-05-23T09:38:46;102003.56;;;15.84;54.32
32735;BME280;19112;51.076;3.706;2023-05-23T09:41:13;101903.91;;;15.29;54.45
32735;BME280;19112;51.076;3.706;2023-05-23T09:43:48;102317.44;;;17.98;53.92
32735;BME280;19112;51.076;3.706;2023-05-23T09:46:14;102139.13;;;16.88;52.70
32735;BME280;19112;51.076;3.706;2023-05-23T09:48:51;102322.72;;;17.96;52.46
32735;BME280;19112;51.076;3.706;2023-05-23T09:51:20;102117.00;;;17.19;52.98
32735;BME280;19112;51.076;3.706;2023-05-23T09:53:47;102319.94;;;18.99;52.12
32735;BME280;19112;51.076;3.706;2023-05-23T09:56:15;102130.25;;;17.52;49.32
32735;BME280;19112;51.076;3.706;2023-05-23T09:58:48;102163.56;;;17.72;50.37
32735;BME280;19112;51.076;3.706;2023-05-23T10:01:14;102232.28;;;17.93;50.60
32735;BME280;19112;51.076;3.706;2023-05-23T10:03:47;102354.13;;;18.11;51.64
32735;BME280;19112;51.076;3.706;2023-05-23T10:06:34;101998.66;;;16.59;51.96
32735;BME280;19112;51.076;3.706;2023-05-23T10:09:06;101875.59;;;15.85;51.85
32735;BME280;19112;51.076;3.706;2023-05-23T10:14:18;102209.72;;;18.12;50.13
32735;BME280;19112;51.076;3.706;2023-05-23T10:17:07;102207.59;;;17.97;50.02
32735;BME280;19112;51.076;3.706;2023-05-23T10:19:57;101980.25;;;16.32;49.40
32735;BME280;19112;51.076;3.706;2023-05-23T10:22:24;101870.97;;;16.09;50.83
32735;BME280;19112;51.076;3.706;2023-05-23T10:24:51;102057.63;;;17.86;49.40
32735;BME280;19112;51.076;3.706;2023-05-23T10:27:18;102023.22;;;17.54;48.57
32735;BME280;19112;51.076;3.706;2023-05-23T10:29:44;102192.88;;;18.51;48.78
32735;BME280;19112;51.076;3.706;2023-05-23T10:32:10;102289.06;;;19.51;47.52
32735;BME280;19112;51.076;3.706;2023-05-23T10:34:58;102355.16;;;19.67;47.76
32735;BME280;19112;51.076;3.706;2023-05-23T10:40:19;102329.22;;;19.60;48.73
32735;BME280;19112;51.076;3.706;2023-05-23T10:45:41;102262.81;;;18.11;49.17
32735;BME280;19112;51.076;3.706;2023-05-23T10:48:34;102353.53;;;18.57;50.04
32735;BME280;19112;51.076;3.706;2023-05-23T10:51:11;102156.25;;;17.64;49.44
32735;BME280;19112;51.076;3.706;2023-05-23T10:53:49;102343.38;;;19.15;48.47
32735;BME280;19112;51.076;3.706;2023-05-23T10:56:20;102152.41;;;17.52;48.12
32735;BME280;19112;51.076;3.706;2023-05-23T10:58:55;102306.59;;;18.59;49.44
32735;BME280;19112;51.076;3.706;2023-05-23T11:01:22;102260.22;;;18.48;49.30
32735;BME280;19112;51.076;3.706;2023-05-23T11:03:52;102047.88;;;17.50;47.78
32735;BME280;19112;51.076;3.706;2023-05-23T11:06:37;102049.09;;;17.63;48.48
32735;BME280;19112;51.076;3.706;2023-05-23T11:09:16;102006.47;;;17.21;47.97
32735;BME280;19112;51.076;3.706;2023-05-23T11:12:01;102354.28;;;18.87;48.75
32735;BME280;19112;51.076;3.706;2023-05-23T11:20:06;102219.88;;;18.68;47.53
32735;BME280;19112;51.076;3.706;2023-05-23T11:22:35;101957.38;;;17.41;47.79
32735;BME280;19112;51.076;3.706;2023-05-23T11:25:07;102277.03;;;19.27;47.17
32735;BME280;19112;51.076;3.706;2023-05-23T11:27:40;102283.78;;;19.10;48.26
32735;BME280;19112;51.076;3.706;2023-05-23T11:30:12;102363.97;;;20.10;46.54
32735;BME280;19112;51.076;3.706;2023-05-23T11:32:38;102278.53;;;19.13;46.16
32735;BME280;19112;51.076;3.706;2023-05-23T11:35:09;102297.41;;;18.83;46.76
32735;BME280;19112;51.076;3.706;2023-05-23T11:37:37;102324.03;;;19.24;48.18
32735;BME280;19112;51.076;3.706;2023-05-23T11:42:59;102279.19;;;19.91;46.49
32735;BME280;19112;51.076;3.706;2023-05-23T11:45:27;101859.22;;;17.43;45.12
32735;BME280;19112;51.076;3.706;2023-05-23T11:47:53;102208.78;;;19.32;45.80
32735;BME280;19112;51.076;3.706;2023-05-23T11:50:19;102154.66;;;18.46;45.74
32735;BME280;19112;51.076;3.706;2023-05-23T11:52:46;102294.31;;;19.48;46.95
32735;BME280;19112;51.076;3.706;2023-05-23T11:55:20;102255.00;;;19.34;46.07
32735;BME280;19112;51.076;3.706;2023-05-23T11:57:46;102224.31;;;19.08;46.15
32735;BME280;19112;51.076;3.706;2023-05-23T12:00:14;102336.72;;;19.35;46.81
32735;BME280;19112;51.076;3.706;2023-05-23T12:02:42;102363.13;;;19.66;46.40
32735;BME280;19112;51.076;3.706;2023-05-23T12:05:13;102080.66;;;17.86;46.93
32735;BME280;19112;51.076;3.706;2023-05-23T12:07:46;102374.28;;;19.92;46.60
32735;BME280;19112;51.076;3.706;2023-05-23T12:10:16;102310.63;;;19.61;45.53
32735;BME280;19112;51.076;3.706;2023-05-23T12:12:43;102154.09;;;18.62;46.36
32735;BME280;19112;51.076;3.706;2023-05-23T12:15:11;102317.66;;;19.17;46.24
32735;BME280;19112;51.076;3.706;2023-05-23T12:17:46;102368.00;;;19.46;47.96
32735;BME280;19112;51.076;3.706;2023-05-23T12:20:12;102296.84;;;18.98;46.95
32735;BME280;19112;51.076;3.706;2023-05-23T12:22:38;102361.78;;;19.45;46.66
32735;BME280;19112;51.076;3.706;2023-05-23T12:25:08;102368.31;;;19.19;45.88
32735;BME280;19112;51.076;3.706;2023-05-23T12:27:35;102304.66;;;18.90;46.60
32735;BME280;19112;51.076;3.706;2023-05-23T12:32:32;102168.81;;;18.45;46.43
32735;BME280;19112;51.076;3.706;2023-05-23T12:34:58;102271.72;;;18.85;45.97
32735;BME280;19112;51.076;3.706;2023-05-23T12:37:24;102092.84;;;17.77;46.52
32735;BME280;19112;51.076;3.706;2023-05-23T12:39:50;102071.66;;;17.46;45.85
32735;BME280;19112;51.076;3.706;2023-05-23T12:42:16;102290.91;;;18.70;46.49
32735;BME280;19112;51.076;3.706;2023-05-23T12:44:42;102379.22;;;18.92;46.50
32735;BME280;19112;51.076;3.706;2023-05-23T12:47:08;102203.13;;;18.32;47.75
32735;BME280;19112;51.076;3.706;2023-05-23T12:49:35;102087.50;;;18.15;46.54
32735;BME280;19112;51.076;3.706;2023-05-23T12:52:01;102366.81;;;19.33;44.27
32735;BME280;19112;51.076;3.706;2023-05-23T12:54:27;102367.75;;;19.33;45.19
32735;BME280;19112;51.076;3.706;2023-05-23T12:56:53;102375.16;;;19.48;45.56
32735;BME280;19112;51.076;3.706;2023-05-23T12:59:19;102193.00;;;18.55;46.12
32735;BME280;19112;51.076;3.706;2023-05-23T13:01:45;102133.13;;;18.33;45.55
32735;BME280;19112;51.076;3.706;2023-05-23T13:04:11;102369.13;;;19.57;45.50
32735;BME280;19112;51.076;3.706;2023-05-23T13:06:37;102285.75;;;19.19;45.84
32735;BME280;19112;51.076;3.706;2023-05-23T13:09:03;102093.69;;;18.56;45.05
32735;BME280;19112;51.076;3.706;2023-05-23T13:11:29;102083.38;;;18.70;44.91
32735;BME280;19112;51.076;3.706;2023-05-23T13:13:56;102055.03;;;18.30;44.46
32735;BME280;19112;51.076;3.706;2023-05-23T13:16:22;102279.16;;;19.44;43.91
32735;BME280;19112;51.076;3.706;2023-05-23T13:18:48;102258.47;;;19.76;43.83
32735;BME280;19112;51.076;3.706;2023-05-23T13:21:14;101860.09;;;17.04;44.56
32735;BME280;19112;51.076;3.706;2023-05-23T13:23:40;102207.25;;;19.00;44.07